Archiv-/Tagesdaten

--Timestamp---	Temp	Chill	HIndex	Humid	Dewpt	 Wind 	HiWind	WindDir	Rain 	Barom	Solar	 ET  	 UV 
--------------	----	-----	------	-----	-----	------	------	-------	-----	-----	-----	-----	----
20091226 00:00	3.3	-1.4	3.3	69	-1.9	23	43	248	0.0	1009.8	0	0.051	0.0
20091226 00:05	3.2	-1.7	3.2	68	-2.1	24	37	248	0.0	1009.8	0	0.000	0.0
20091226 00:10	3.2	-1.8	3.2	68	-2.1	26	39	248	0.0	1010.0	0	0.000	0.0
20091226 00:15	3.2	-1.7	3.2	68	-2.2	24	43	270	0.0	1009.9	0	0.000	0.0
20091226 00:20	3.2	-1.5	3.2	69	-2.0	23	37	270	0.0	1010.0	0	0.000	0.0
20091226 00:25	3.1	-1.5	3.1	69	-2.1	21	48	270	0.0	1010.1	0	0.000	0.0
20091226 00:30	3.0	-1.6	3.0	70	-1.9	21	39	270	0.0	1010.2	0	0.000	0.0
20091226 00:35	3.1	-1.9	3.1	69	-2.1	24	37	248	0.0	1010.4	0	0.000	0.0
20091226 00:40	3.2	-1.9	3.2	68	-2.2	26	45	248	0.0	1010.3	0	0.000	0.0
20091226 00:45	3.2	-1.7	3.2	67	-2.4	24	53	270	0.0	1010.3	0	0.000	0.0
20091226 00:50	3.1	-1.8	3.1	68	-2.2	24	42	270	0.0	1010.5	0	0.000	0.0
20091226 00:55	3.1	-1.7	3.1	68	-2.3	23	37	270	0.0	1010.6	0	0.000	0.0
20091226 01:00	2.9	-1.4	2.9	68	-2.4	19	32	270	0.0	1010.9	0	0.051	0.0
20091226 01:05	2.9	-2.0	2.9	68	-2.4	24	39	270	0.0	1011.1	0	0.000	0.0
20091226 01:10	2.9	-1.7	2.9	68	-2.4	21	34	270	0.0	1011.1	0	0.000	0.0
20091226 01:15	2.8	-1.8	2.8	68	-2.5	21	34	270	0.0	1011.1	0	0.000	0.0
20091226 01:20	2.8	-1.6	2.8	68	-2.5	19	34	270	0.0	1011.1	0	0.000	0.0
20091226 01:25	2.9	-1.7	2.9	68	-2.4	21	40	270	0.0	1011.2	0	0.000	0.0
20091226 01:30	2.8	-0.8	2.8	69	-2.3	14	26	270	0.0	1011.3	0	0.000	0.0
20091226 01:35	2.8	-1.4	2.8	69	-2.3	18	31	270	0.0	1011.3	0	0.000	0.0
20091226 01:40	2.8	-2.0	2.8	69	-2.3	23	43	270	0.0	1011.3	0	0.000	0.0
20091226 01:45	2.8	-1.8	2.8	68	-2.5	21	40	270	0.0	1011.5	0	0.000	0.0
20091226 01:50	2.7	-1.3	2.7	69	-2.4	16	29	270	0.0	1011.4	0	0.000	0.0
20091226 01:55	2.7	-2.0	2.7	69	-2.4	21	35	270	0.0	1011.6	0	0.000	0.0
20091226 02:00	2.7	-1.8	2.7	69	-2.4	19	32	270	0.0	1011.7	0	0.051	0.0
20091226 02:05	2.7	-2.2	2.7	69	-2.4	23	39	270	0.0	1011.7	0	0.000	0.0
20091226 02:10	2.6	-1.8	2.6	69	-2.5	19	34	270	0.0	1011.8	0	0.000	0.0
20091226 02:15	2.6	-1.7	2.6	70	-2.4	18	32	270	0.0	1011.9	0	0.000	0.0
20091226 02:20	2.5	-1.7	2.5	70	-2.4	18	31	248	0.0	1011.9	0	0.000	0.0
20091226 02:25	2.5	-2.2	2.5	70	-2.4	21	34	270	0.0	1011.9	0	0.000	0.0
20091226 02:30	2.5	-2.0	2.5	70	-2.4	19	35	270	0.0	1011.8	0	0.000	0.0
20091226 02:35	2.4	-1.6	2.4	70	-2.5	16	27	270	0.0	1012.0	0	0.000	0.0
20091226 02:40	2.3	-2.2	2.3	70	-2.6	19	32	248	0.0	1011.9	0	0.000	0.0
20091226 02:45	2.2	-1.8	2.2	71	-2.5	16	26	270	0.0	1011.8	0	0.000	0.0
20091226 02:50	2.1	-1.7	2.1	71	-2.6	14	29	270	0.0	1011.9	0	0.000	0.0
20091226 02:55	2.1	-2.2	2.1	71	-2.6	18	31	270	0.0	1012.0	0	0.000	0.0
20091226 03:00	2.1	-1.5	2.1	71	-2.6	13	23	270	0.0	1012.0	0	0.051	0.0
20091226 03:05	1.9	-1.6	1.9	71	-2.8	13	21	270	0.0	1012.0	0	0.000	0.0
20091226 03:10	1.9	-1.7	1.9	71	-2.8	13	23	270	0.0	1012.0	0	0.000	0.0
20091226 03:15	1.9	-2.0	1.9	71	-2.8	14	24	248	0.0	1012.1	0	0.000	0.0
20091226 03:20	1.9	-2.4	1.9	71	-2.8	18	26	248	0.0	1012.0	0	0.000	0.0
20091226 03:25	1.9	-1.9	1.9	71	-2.8	14	23	248	0.0	1011.9	0	0.000	0.0
20091226 03:30	1.8	-1.4	1.8	71	-2.9	11	24	248	0.0	1012.1	0	0.000	0.0
20091226 03:35	1.8	-1.8	1.8	71	-2.9	13	24	270	0.0	1012.1	0	0.000	0.0
20091226 03:40	1.8	-1.8	1.8	70	-3.1	13	26	248	0.0	1012.1	0	0.000	0.0
20091226 03:45	1.8	-1.5	1.8	70	-3.1	11	24	270	0.0	1012.2	0	0.000	0.0
20091226 03:50	1.8	-1.5	1.8	70	-3.1	11	21	248	0.0	1012.3	0	0.000	0.0
20091226 03:55	1.8	-1.1	1.8	70	-3.1	10	21	248	0.0	1012.3	0	0.000	0.0
20091226 04:00	1.7	-1.2	1.7	70	-3.2	10	19	248	0.0	1012.3	0	0.025	0.0
20091226 04:05	1.7	-0.8	1.7	70	-3.2	8	13	248	0.0	1012.4	0	0.000	0.0
20091226 04:10	1.7	-0.7	1.7	70	-3.2	8	16	225	0.0	1012.4	0	0.000	0.0
20091226 04:15	1.7	-0.7	1.7	70	-3.2	8	14	248	0.0	1012.3	0	0.000	0.0
20091226 04:20	1.7	-0.7	1.7	70	-3.2	8	11	248	0.0	1012.4	0	0.000	0.0
20091226 04:25	1.7	-1.2	1.7	71	-3.0	10	16	248	0.0	1012.3	0	0.000	0.0
20091226 04:30	1.6	-0.9	1.6	71	-3.1	8	18	248	0.0	1012.5	0	0.000	0.0
20091226 04:35	1.5	-0.4	1.5	71	-3.2	6	13	248	0.0	1012.6	0	0.000	0.0
20091226 04:40	1.4	-1.1	1.4	71	-3.3	8	16	248	0.0	1012.6	0	0.000	0.0
20091226 04:45	1.4	-1.1	1.4	71	-3.3	8	16	248	0.0	1012.5	0	0.000	0.0
20091226 04:50	1.5	-1.4	1.5	70	-3.4	10	21	248	0.0	1012.4	0	0.000	0.0
20091226 04:55	1.6	-1.7	1.6	70	-3.3	11	26	248	0.0	1012.4	0	0.000	0.0
20091226 05:00	1.7	-1.9	1.7	70	-3.2	13	21	248	0.0	1012.5	0	0.025	0.0
20091226 05:05	1.6	-1.7	1.6	70	-3.3	11	21	248	0.0	1012.6	0	0.000	0.0
20091226 05:10	1.4	-1.5	1.4	71	-3.2	10	16	248	0.0	1012.6	0	0.000	0.0
20091226 05:15	1.3	-1.6	1.3	71	-3.3	10	18	248	0.0	1012.8	0	0.000	0.0
20091226 05:20	1.3	-1.2	1.3	71	-3.3	8	14	248	0.0	1012.8	0	0.000	0.0
20091226 05:25	1.3	-1.2	1.3	71	-3.4	8	14	270	0.0	1012.9	0	0.000	0.0
20091226 05:30	1.2	-0.8	1.2	71	-3.4	6	14	248	0.0	1012.9	0	0.000	0.0
20091226 05:35	1.2	-0.8	1.2	71	-3.5	6	16	225	0.0	1013.0	0	0.000	0.0
20091226 05:40	1.2	-1.4	1.2	71	-3.5	8	14	248	0.0	1013.0	0	0.000	0.0
20091226 05:45	1.1	-1.5	1.1	71	-3.6	8	18	225	0.0	1013.0	0	0.000	0.0
20091226 05:50	1.1	-1.5	1.1	71	-3.6	8	14	248	0.0	1013.1	0	0.000	0.0
20091226 05:55	1.0	-2.0	1.0	76	-2.7	10	14	225	0.0	1013.1	0	0.000	0.0
20091226 06:00	0.9	-1.1	0.9	72	-3.5	6	10	248	0.0	1013.2	0	0.025	0.0
20091226 06:05	0.8	0.8	0.8	73	-3.5	5	8	225	0.0	1013.2	0	0.000	0.0
20091226 06:10	0.7	0.7	0.7	73	-3.6	5	8	225	0.0	1013.4	0	0.000	0.0
20091226 06:15	0.6	-1.5	0.6	74	-3.5	6	8	225	0.0	1013.4	0	0.000	0.0
20091226 06:20	0.5	0.5	0.5	74	-3.6	5	6	225	0.0	1013.4	0	0.000	0.0
20091226 06:25	0.3	0.3	0.3	74	-3.8	5	10	202	0.0	1013.4	0	0.000	0.0
20091226 06:30	0.3	-1.9	0.3	75	-3.6	6	10	202	0.0	1013.4	0	0.000	0.0
20091226 06:35	0.2	-2.0	0.2	75	-3.7	6	10	202	0.0	1013.4	0	0.000	0.0
20091226 06:40	0.1	-2.1	0.1	75	-3.8	6	10	225	0.0	1013.3	0	0.000	0.0
20091226 06:45	0.0	-2.2	0.0	75	-3.9	6	11	202	0.0	1013.2	0	0.000	0.0
20091226 06:50	-0.1	-0.1	-0.1	76	-3.8	5	10	225	0.0	1013.2	0	0.000	0.0
20091226 06:55	-0.2	-2.4	-0.2	76	-3.9	6	10	225	0.0	1013.2	0	0.000	0.0
20091226 07:00	-0.3	-0.3	-0.3	76	-4.0	5	8	225	0.0	1013.1	0	0.025	0.0
20091226 07:05	-0.3	-2.5	-0.3	76	-4.0	6	14	248	0.0	1013.2	0	0.000	0.0
20091226 07:10	-0.3	-0.3	-0.3	76	-4.0	5	8	225	0.0	1013.2	0	0.000	0.0
20091226 07:15	-0.3	-0.3	-0.3	76	-4.0	5	10	225	0.0	1013.2	0	0.000	0.0
20091226 07:20	-0.3	-2.6	-0.3	76	-4.0	6	11	248	0.0	1013.2	0	0.000	0.0
20091226 07:25	-0.3	-0.3	-0.3	76	-4.0	5	10	225	0.0	1013.2	0	0.000	0.0
20091226 07:30	-0.3	-0.3	-0.3	75	-4.2	5	8	248	0.0	1013.2	0	0.000	0.0
20091226 07:35	-0.3	-0.3	-0.3	75	-4.2	5	8	248	0.0	1013.2	0	0.000	0.0
20091226 07:40	-0.2	-0.2	-0.2	75	-4.1	5	10	248	0.0	1013.1	0	0.000	0.0
20091226 07:45	-0.2	-0.2	-0.2	75	-4.1	5	8	248	0.0	1013.1	0	0.000	0.0
20091226 07:50	-0.2	-0.2	-0.2	75	-4.1	3	5	248	0.0	1013.0	0	0.000	0.0
20091226 07:55	-0.3	-0.3	-0.3	75	-4.2	0	3	248	0.0	1013.1	0	0.000	0.0
20091226 08:00	-0.4	-0.4	-0.4	75	-4.3	0	3	248	0.0	1013.1	0	0.000	0.0
20091226 08:05	-0.6	-0.6	-0.6	76	-4.3	2	5	248	0.0	1013.1	0	0.000	0.0
20091226 08:10	-0.7	-0.7	-0.7	77	-4.2	5	8	248	0.0	1013.3	4	0.000	0.0
20091226 08:15	-0.8	-0.8	-0.8	77	-4.4	5	8	180	0.0	1013.4	6	0.000	0.0
20091226 08:20	-0.9	-0.9	-0.9	78	-4.3	5	10	180	0.0	1013.5	8	0.000	0.0
20091226 08:25	-1.0	-1.0	-1.0	78	-4.3	3	8	180	0.0	1013.4	9	0.000	0.0
20091226 08:30	-1.1	-1.1	-1.1	79	-4.2	5	8	202	0.0	1013.5	11	0.000	0.0
20091226 08:35	-1.1	-1.1	-1.1	79	-4.3	5	10	202	0.0	1013.6	12	0.000	0.0
20091226 08:40	-1.2	-1.2	-1.2	79	-4.3	5	10	180	0.0	1013.5	13	0.000	0.0
20091226 08:45	-1.2	-1.2	-1.2	79	-4.3	5	8	158	0.0	1013.5	14	0.000	0.0
20091226 08:50	-1.2	-3.6	-1.2	80	-4.2	6	10	180	0.0	1013.5	16	0.000	0.0
20091226 08:55	-1.2	-1.2	-1.2	80	-4.2	5	10	180	0.0	1013.6	17	0.000	0.0
20091226 09:00	-1.2	-1.2	-1.2	79	-4.3	5	8	202	0.0	1013.5	18	0.000	0.0
20091226 09:05	-1.1	-1.1	-1.1	79	-4.3	3	10	158	0.0	1013.4	19	0.000	0.0
20091226 09:10	-1.1	-1.1	-1.1	79	-4.2	5	10	180	0.0	1013.4	19	0.000	0.0
20091226 09:15	-1.0	-1.0	-1.0	78	-4.3	5	10	180	0.0	1013.3	20	0.000	0.0
20091226 09:20	-0.9	-0.9	-0.9	78	-4.2	5	10	180	0.0	1013.3	21	0.000	0.0
20091226 09:25	-0.8	-0.8	-0.8	77	-4.3	5	10	180	0.0	1013.3	21	0.000	0.0
20091226 09:30	-0.7	-0.7	-0.7	77	-4.2	5	8	180	0.0	1013.4	22	0.000	0.0
20091226 09:35	-0.6	-2.8	-0.6	77	-4.1	6	10	180	0.0	1013.4	23	0.000	0.0
20091226 09:40	-0.4	-0.4	-0.4	77	-4.0	5	10	202	0.0	1013.4	23	0.000	0.0
20091226 09:45	-0.3	-0.3	-0.3	76	-4.0	5	11	202	0.0	1013.3	25	0.000	0.0
20091226 09:50	-0.1	-0.1	-0.1	76	-3.8	5	10	180	0.0	1013.4	25	0.000	0.0
20091226 09:55	0.0	0.0	0.0	75	-3.9	5	10	180	0.0	1013.4	25	0.000	0.0
20091226 10:00	0.2	0.2	0.2	75	-3.7	5	10	202	0.0	1013.5	26	0.025	0.0
20091226 10:05	0.3	0.3	0.3	75	-3.6	5	10	180	0.0	1013.3	26	0.000	0.0
20091226 10:10	0.4	0.4	0.4	74	-3.6	5	10	202	0.0	1013.2	26	0.000	0.0
20091226 10:15	0.6	0.6	0.6	73	-3.7	3	6	202	0.0	1013.2	26	0.000	0.0
20091226 10:20	0.8	0.8	0.8	73	-3.5	5	11	202	0.0	1013.1	27	0.000	0.0
20091226 10:25	0.9	-1.1	0.9	72	-3.5	6	10	202	0.0	1013.0	28	0.000	0.0
20091226 10:30	1.1	1.1	1.1	71	-3.6	5	11	202	0.0	1013.0	28	0.000	0.0
20091226 10:35	1.3	1.3	1.3	71	-3.3	3	6	202	0.0	1013.0	28	0.000	0.0
20091226 10:40	1.3	1.3	1.3	71	-3.3	3	6	202	0.0	1013.0	28	0.000	0.0
20091226 10:45	1.6	1.6	1.6	69	-3.5	5	8	180	0.0	1013.0	30	0.000	0.0
20091226 10:50	1.7	1.7	1.7	68	-3.5	3	6	180	0.0	1013.0	30	0.000	0.0
20091226 10:55	1.9	1.9	1.9	68	-3.3	3	5	180	0.0	1012.8	30	0.000	0.0
20091226 11:00	2.1	2.1	2.1	67	-3.4	2	6	180	0.0	1012.6	30	0.025	0.0
20091226 11:05	2.3	2.3	2.3	66	-3.4	3	8	180	0.0	1012.4	30	0.000	0.0
20091226 11:10	2.4	2.4	2.4	66	-3.3	5	8	158	0.0	1012.4	153	0.000	0.3
20091226 11:15	2.5	2.5	2.5	66	-3.2	5	10	135	0.0	1012.3	280	0.000	0.6
20091226 11:20	2.7	2.7	2.7	65	-3.2	3	8	135	0.0	1012.4	285	0.000	0.6
20091226 11:25	3.1	3.1	3.1	63	-3.2	5	11	158	0.0	1012.3	289	0.000	0.6
20091226 11:30	3.3	1.6	3.3	61	-3.5	6	10	135	0.0	1012.2	293	0.000	0.6
20091226 11:35	3.6	3.6	3.6	61	-3.3	5	10	158	0.0	1012.1	295	0.000	0.6
20091226 11:40	3.8	3.8	3.8	62	-2.8	3	8	158	0.0	1012.1	298	0.000	0.6
20091226 11:45	3.9	3.9	3.9	60	-3.2	3	8	158	0.0	1012.0	301	0.000	0.6
20091226 11:50	4.2	4.2	4.2	58	-3.4	5	11	180	0.0	1011.9	302	0.000	0.6
20091226 11:55	4.2	4.2	4.2	59	-3.1	5	10	180	0.0	1011.8	297	0.000	0.6
20091226 12:00	3.8	2.2	3.8	58	-3.7	6	11	135	0.0	1011.9	296	0.127	0.6
20091226 12:05	3.7	2.1	3.7	58	-3.8	6	10	135	0.0	1011.8	291	0.000	0.6
20091226 12:10	3.7	2.1	3.7	60	-3.4	6	11	135	0.0	1011.6	289	0.000	0.6
20091226 12:15	3.6	2.0	3.6	58	-3.9	6	11	112	0.0	1011.4	284	0.000	0.6
20091226 12:20	3.6	2.0	3.6	60	-3.4	6	11	135	0.0	1011.3	293	0.000	0.6
20091226 12:25	3.8	3.8	3.8	60	-3.2	5	8	135	0.0	1011.3	296	0.000	0.6
20091226 12:30	3.8	1.8	3.8	59	-3.4	8	16	135	0.0	1011.2	296	0.000	0.6
20091226 12:35	3.7	1.2	3.7	58	-3.8	10	19	135	0.0	1011.1	294	0.000	0.6
20091226 12:40	3.7	2.1	3.7	60	-3.4	6	11	135	0.0	1011.0	292	0.000	0.6
20091226 12:45	3.6	1.1	3.6	60	-3.4	10	16	135	0.0	1010.9	290	0.000	0.6
20091226 12:50	3.6	1.5	3.6	60	-3.4	8	14	135	0.0	1010.7	289	0.000	0.6
20091226 12:55	3.7	0.8	3.7	59	-3.6	11	19	112	0.0	1010.5	286	0.000	0.6
20091226 13:00	3.6	1.1	3.6	59	-3.6	10	18	112	0.0	1010.4	285	0.127	0.6
20091226 13:05	3.7	1.2	3.7	60	-3.4	10	18	112	0.0	1010.2	280	0.000	0.6
20091226 13:10	3.7	0.8	3.7	58	-3.8	11	18	112	0.0	1010.2	267	0.000	0.6
20091226 13:15	3.7	0.8	3.7	59	-3.6	11	19	112	0.0	1010.1	256	0.000	0.6
20091226 13:20	3.7	0.5	3.7	56	-4.3	13	19	112	0.0	1010.1	264	0.000	0.6
20091226 13:25	3.7	1.2	3.7	59	-3.6	10	18	112	0.0	1010.0	248	0.000	0.5
20091226 13:30	3.7	0.2	3.7	58	-3.8	14	21	112	0.0	1010.0	231	0.000	0.5
20091226 13:35	3.7	1.2	3.7	59	-3.6	10	16	112	0.0	1009.9	237	0.000	0.5
20091226 13:40	3.7	0.2	3.7	58	-3.8	14	21	112	0.0	1010.0	235	0.000	0.5
20091226 13:45	3.7	0.5	3.7	57	-4.1	13	21	112	0.0	1009.8	238	0.000	0.5
20091226 13:50	3.7	0.5	3.7	57	-4.1	13	21	112	0.0	1009.7	207	0.000	0.1
20091226 13:55	3.7	1.2	3.7	57	-4.1	10	18	112	0.0	1009.6	202	0.000	0.0
20091226 14:00	3.7	1.2	3.7	57	-4.0	10	18	112	0.0	1009.5	217	0.127	0.0
20091226 14:05	3.8	2.2	3.8	59	-3.5	6	11	135	0.0	1009.6	214	0.000	0.0
20091226 14:10	3.8	2.2	3.8	59	-3.4	6	14	112	0.0	1009.5	203	0.000	0.0
20091226 14:15	3.9	1.8	3.9	59	-3.4	8	18	135	0.0	1009.3	202	0.000	0.0
20091226 14:20	3.8	2.2	3.8	59	-3.4	6	11	112	0.0	1009.2	124	0.000	0.0
20091226 14:25	3.8	1.3	3.8	59	-3.5	10	19	112	0.0	1009.1	69	0.000	0.0
20091226 14:30	3.7	1.2	3.7	60	-3.4	10	23	112	0.0	1009.0	59	0.000	0.0
20091226 14:35	3.6	1.5	3.6	60	-3.4	8	14	112	0.0	1009.0	54	0.000	0.0
20091226 14:40	3.5	1.4	3.5	60	-3.5	8	18	135	0.0	1009.0	50	0.000	0.0
20091226 14:45	3.4	0.2	3.4	59	-3.8	13	18	112	0.0	1008.9	48	0.000	0.0
20091226 14:50	3.4	0.5	3.4	58	-4.1	11	19	112	0.0	1009.0	46	0.000	0.0
20091226 14:55	3.3	0.8	3.3	59	-3.9	10	18	112	0.0	1009.0	41	0.000	0.0
20091226 15:00	3.3	1.6	3.3	61	-3.5	6	14	135	0.0	1009.0	39	0.076	0.0
20091226 15:05	3.2	3.2	3.2	62	-3.4	3	8	135	0.0	1009.0	39	0.000	0.0
20091226 15:10	3.1	3.1	3.1	63	-3.3	3	10	135	0.0	1009.1	40	0.000	0.0
20091226 15:15	2.9	2.9	2.9	64	-3.2	3	6	112	0.0	1008.9	42	0.000	0.0
20091226 15:20	2.9	2.9	2.9	63	-3.5	5	10	90	0.0	1008.9	39	0.000	0.0
20091226 15:25	2.8	2.8	2.8	64	-3.3	3	10	135	0.0	1009.0	34	0.000	0.0
20091226 15:30	2.7	2.7	2.7	65	-3.2	3	11	112	0.0	1008.9	31	0.000	0.0
20091226 15:35	2.5	2.5	2.5	66	-3.2	5	10	112	0.0	1008.8	28	0.000	0.0
20091226 15:40	2.4	2.4	2.4	66	-3.3	3	8	112	0.0	1008.9	26	0.000	0.0
20091226 15:45	2.3	2.3	2.3	67	-3.2	3	8	135	0.0	1008.8	24	0.000	0.0
20091226 15:50	2.2	2.2	2.2	68	-3.1	3	8	90	0.0	1008.9	22	0.000	0.0
20091226 15:55	2.0	2.0	2.0	68	-3.3	3	6	112	0.0	1008.9	19	0.000	0.0
20091226 16:00	1.9	1.9	1.9	69	-3.2	3	6	90	0.0	1008.8	16	0.025	0.0
20091226 16:05	1.8	1.8	1.8	69	-3.3	3	8	90	0.0	1008.7	13	0.000	0.0
20091226 16:10	1.6	1.6	1.6	69	-3.5	3	8	68	0.0	1008.7	9	0.000	0.0
20091226 16:15	1.5	1.5	1.5	69	-3.6	3	8	90	0.0	1008.7	6	0.000	0.0
20091226 16:20	1.3	1.3	1.3	69	-3.7	2	6	90	0.0	1008.6	2	0.000	0.0
20091226 16:25	1.3	1.3	1.3	70	-3.5	2	6	90	0.0	1008.7	0	0.000	0.0
20091226 16:30	1.3	1.3	1.3	70	-3.6	2	5	90	0.0	1008.6	0	0.000	0.0
20091226 16:35	1.1	1.1	1.1	71	-3.6	3	6	45	0.0	1008.6	0	0.000	0.0
20091226 16:40	1.0	1.0	1.0	71	-3.7	3	6	68	0.0	1008.6	0	0.000	0.0
20091226 16:45	0.9	0.9	0.9	72	-3.6	3	6	68	0.0	1008.5	0	0.000	0.0
20091226 16:50	0.7	0.7	0.7	72	-3.7	3	6	45	0.0	1008.6	0	0.000	0.0
20091226 16:55	0.6	0.6	0.6	73	-3.7	3	6	45	0.0	1008.6	0	0.000	0.0
20091226 17:00	0.4	0.4	0.4	74	-3.6	5	6	45	0.0	1008.6	0	0.000	0.0
20091226 17:05	0.4	0.4	0.4	74	-3.7	3	6	45	0.0	1008.7	0	0.000	0.0
20091226 17:10	0.3	0.3	0.3	74	-3.8	5	6	45	0.0	1008.7	0	0.000	0.0
20091226 17:15	0.2	0.2	0.2	75	-3.7	5	8	22	0.0	1008.6	0	0.000	0.0
20091226 17:20	0.1	0.1	0.1	76	-3.7	3	6	22	0.0	1008.5	0	0.000	0.0
20091226 17:25	-0.1	-0.1	-0.1	76	-3.8	3	8	45	0.0	1008.6	0	0.000	0.0
20091226 17:30	-0.2	-0.2	-0.2	76	-3.9	3	6	45	0.0	1008.5	0	0.000	0.0
20091226 17:35	-0.2	-2.4	-0.2	77	-3.7	6	10	45	0.0	1008.4	0	0.000	0.0
20091226 17:40	-0.1	-0.1	-0.1	76	-3.8	5	8	45	0.0	1008.4	0	0.000	0.0
20091226 17:45	-0.1	-0.1	-0.1	76	-3.8	5	8	45	0.0	1008.3	0	0.000	0.0
20091226 17:50	-0.1	-0.1	-0.1	77	-3.7	3	8	45	0.0	1008.5	0	0.000	0.0
20091226 17:55	-0.2	-0.2	-0.2	77	-3.7	2	5	45	0.0	1008.5	0	0.000	0.0
20091226 18:00	-0.3	-0.3	-0.3	78	-3.6	2	3	45	0.0	1008.5	0	0.025	0.0
20091226 18:05	-0.3	-0.3	-0.3	78	-3.7	0	3	45	0.0	1008.8	0	0.000	0.0
20091226 18:10	-0.4	-0.4	-0.4	79	-3.6	2	5	45	0.0	1008.7	0	0.000	0.0
20091226 18:15	-0.6	-0.6	-0.6	79	-3.7	2	6	45	0.0	1008.7	0	0.000	0.0
20091226 18:20	-0.6	-0.6	-0.6	79	-3.8	3	6	45	0.0	1008.7	0	0.000	0.0
20091226 18:25	-0.6	-0.6	-0.6	79	-3.8	3	5	45	0.0	1008.7	0	0.000	0.0
20091226 18:30	-0.6	-0.6	-0.6	79	-3.7	3	6	45	0.0	1008.7	0	0.000	0.0
20091226 18:35	-0.5	-0.5	-0.5	79	-3.7	2	5	45	0.0	1008.6	0	0.000	0.0
20091226 18:40	-0.5	-0.5	-0.5	79	-3.7	2	5	45	0.0	1008.7	0	0.000	0.0
20091226 18:45	-0.6	-0.6	-0.6	79	-3.7	2	5	45	0.0	1008.7	0	0.000	0.0
20091226 18:50	-0.7	-0.7	-0.7	79	-3.8	2	5	45	0.0	1008.7	0	0.000	0.0
20091226 18:55	-0.6	-0.6	-0.6	79	-3.8	2	6	45	0.0	1008.8	0	0.000	0.0
20091226 19:00	-0.6	-0.6	-0.6	78	-3.9	2	5	68	0.0	1008.8	0	0.000	0.0
20091226 19:05	-0.6	-0.6	-0.6	78	-3.9	0	3	68	0.0	1008.8	0	0.000	0.0
20091226 19:10	-0.6	-0.6	-0.6	78	-3.9	0	3	68	0.0	1008.8	0	0.000	0.0
20091226 19:15	-0.7	-0.7	-0.7	78	-4.0	0	3	68	0.0	1008.7	0	0.000	0.0
20091226 19:20	-0.8	-0.8	-0.8	78	-4.1	0	2	68	0.0	1008.8	0	0.000	0.0
20091226 19:25	-0.8	-0.8	-0.8	79	-4.0	2	5	68	0.0	1008.9	0	0.000	0.0
20091226 19:30	-0.9	-0.9	-0.9	79	-4.1	0	3	68	0.0	1009.0	0	0.000	0.0
20091226 19:35	-0.9	-0.9	-0.9	79	-4.1	0	0	-100000	0.0	1009.0	0	0.000	0.0
20091226 19:40	-1.1	-1.1	-1.1	79	-4.2	0	0	-100000	0.0	1009.0	0	0.000	0.0
20091226 19:45	-1.2	-1.2	-1.2	79	-4.3	0	0	-100000	0.0	1009.0	0	0.000	0.0
20091226 19:50	-1.3	-1.3	-1.3	79	-4.4	0	0	-100000	0.0	1008.9	0	0.000	0.0
20091226 19:55	-1.3	-1.3	-1.3	80	-4.3	0	0	-100000	0.0	1008.9	0	0.000	0.0
20091226 20:00	-1.4	-1.4	-1.4	80	-4.4	0	2	68	0.0	1008.8	0	0.000	0.0
20091226 20:05	-1.4	-1.4	-1.4	81	-4.3	0	0	-100000	0.0	1009.0	0	0.000	0.0
20091226 20:10	-1.4	-1.4	-1.4	81	-4.3	0	0	-100000	0.0	1008.9	0	0.000	0.0
20091226 20:15	-1.5	-1.5	-1.5	82	-4.2	0	0	-100000	0.0	1009.0	0	0.000	0.0
20091226 20:20	-1.5	-1.5	-1.5	82	-4.2	0	0	-100000	0.0	1009.0	0	0.000	0.0
20091226 20:25	-1.5	-1.5	-1.5	82	-4.2	0	2	68	0.0	1009.0	0	0.000	0.0
20091226 20:30	-1.6	-1.6	-1.6	82	-4.3	3	5	68	0.0	1009.0	0	0.000	0.0
20091226 20:35	-1.7	-1.7	-1.7	83	-4.2	0	3	68	0.0	1008.9	0	0.000	0.0
20091226 20:40	-1.8	-1.8	-1.8	83	-4.3	0	0	-100000	0.0	1009.1	0	0.000	0.0
20091226 20:45	-1.8	-1.8	-1.8	84	-4.1	0	0	-100000	0.0	1009.0	0	0.000	0.0
20091226 20:50	-1.8	-1.8	-1.8	83	-4.3	0	0	-100000	0.0	1009.0	0	0.000	0.0
20091226 20:55	-1.8	-1.8	-1.8	83	-4.3	0	0	-100000	0.0	1009.0	0	0.000	0.0
20091226 21:00	-1.9	-1.9	-1.9	83	-4.4	0	0	-100000	0.0	1009.0	0	0.000	0.0
20091226 21:05	-2.0	-2.0	-2.0	83	-4.5	0	2	68	0.0	1008.8	0	0.000	0.0
20091226 21:10	-2.0	-2.0	-2.0	84	-4.3	0	0	-100000	0.0	1008.8	0	0.000	0.0
20091226 21:15	-2.1	-2.1	-2.1	84	-4.4	0	0	-100000	0.0	1008.8	0	0.000	0.0
20091226 21:20	-2.1	-2.1	-2.1	84	-4.4	0	0	-100000	0.0	1008.8	0	0.000	0.0
20091226 21:25	-2.1	-2.1	-2.1	84	-4.4	0	0	-100000	0.0	1008.8	0	0.000	0.0
20091226 21:30	-2.2	-2.2	-2.2	84	-4.5	0	0	-100000	0.0	1008.9	0	0.000	0.0
20091226 21:35	-2.3	-2.3	-2.3	84	-4.6	0	3	68	0.0	1008.8	0	0.000	0.0
20091226 21:40	-2.3	-2.3	-2.3	85	-4.5	0	2	68	0.0	1008.8	0	0.000	0.0
20091226 21:45	-2.3	-2.3	-2.3	85	-4.5	0	0	-100000	0.0	1008.9	0	0.000	0.0
20091226 21:50	-2.3	-2.3	-2.3	85	-4.5	0	0	-100000	0.0	1008.9	0	0.000	0.0
20091226 21:55	-2.4	-2.4	-2.4	85	-4.6	0	0	-100000	0.0	1008.9	0	0.000	0.0
20091226 22:00	-2.4	-2.4	-2.4	85	-4.6	0	0	-100000	0.0	1009.0	0	0.000	0.0
20091226 22:05	-2.4	-2.4	-2.4	85	-4.6	0	0	-100000	0.0	1008.7	0	0.000	0.0
20091226 22:10	-2.5	-2.5	-2.5	85	-4.7	0	0	-100000	0.0	1008.6	0	0.000	0.0
20091226 22:15	-2.5	-2.5	-2.5	85	-4.7	0	0	-100000	0.0	1008.7	0	0.000	0.0
20091226 22:20	-2.6	-2.6	-2.6	85	-4.7	0	2	68	0.0	1008.8	0	0.000	0.0
20091226 22:25	-2.6	-2.6	-2.6	85	-4.8	0	2	68	0.0	1008.9	0	0.000	0.0
20091226 22:30	-2.7	-2.7	-2.7	85	-4.8	0	2	68	0.0	1009.0	0	0.000	0.0
20091226 22:35	-2.7	-2.7	-2.7	86	-4.7	0	0	-100000	0.0	1009.0	0	0.000	0.0
20091226 22:40	-2.7	-2.7	-2.7	86	-4.7	2	5	68	0.0	1009.0	0	0.000	0.0
20091226 22:45	-2.7	-2.7	-2.7	86	-4.7	2	5	68	0.0	1009.1	0	0.000	0.0
20091226 22:50	-2.8	-2.8	-2.8	86	-4.8	0	0	-100000	0.0	1009.0	0	0.000	0.0
20091226 22:55	-2.8	-2.8	-2.8	86	-4.8	2	5	68	0.0	1009.1	0	0.000	0.0
20091226 23:00	-2.9	-2.9	-2.9	86	-5.0	5	6	158	0.0	1009.1	0	0.000	0.0
20091226 23:05	-3.0	-3.0	-3.0	87	-4.9	3	6	158	0.0	1008.9	0	0.000	0.0
20091226 23:10	-3.1	-3.1	-3.1	87	-4.9	2	6	180	0.0	1008.8	0	0.000	0.0
20091226 23:15	-3.2	-3.2	-3.2	87	-5.0	2	6	180	0.0	1009.0	0	0.000	0.0
20091226 23:20	-3.2	-3.2	-3.2	87	-5.1	2	3	180	0.0	1008.9	0	0.000	0.0
20091226 23:25	-3.2	-3.2	-3.2	87	-5.1	2	5	180	0.0	1008.9	0	0.000	0.0
20091226 23:30	-3.2	-3.2	-3.2	87	-5.1	2	5	180	0.0	1009.0	0	0.000	0.0
20091226 23:35	-3.3	-3.3	-3.3	87	-5.1	3	6	180	0.0	1008.9	0	0.000	0.0
20091226 23:40	-3.3	-3.3	-3.3	87	-5.2	3	6	180	0.0	1008.7	0	0.000	0.0
20091226 23:45	-3.4	-3.4	-3.4	87	-5.2	0	3	180	0.0	1008.6	0	0.000	0.0
20091226 23:50	-3.4	-3.4	-3.4	87	-5.2	2	5	180	0.0	1008.8	0	0.000	0.0
20091226 23:55	-3.4	-3.4	-3.4	87	-5.3	0	3	180	0.0	1008.7	0	0.000	0.0



Please note the license to use and transfer of this data:
http://creativecommons.org/licenses/by-nc-sa/3.0/deed.en

Bitte beachten sie die Lizenz zur Verwertung und Weitergabe der Daten:
http://creativecommons.org/licenses/by-nc-sa/3.0/deed.de

zurück zur Übersicht der Archivdaten (Monats und Tagesdaten)

Cookies helfen bei der Bereitstellung von Inhalten. Durch die Nutzung dieser Seiten erklärst du dich damit einverstanden, dass Cookies auf deinem Rechner gespeichert werden. Weitere Information